sensor_id;sensor_type;location;lat;lon;timestamp;P1;durP1;ratioP1;P2;durP2;ratioP2
9506;SDS011;4791;47.528;9.372;2023-07-29T00:00:36;4.17;;;3.67;;
9506;SDS011;4791;47.528;9.372;2023-07-29T00:15:36;4.28;;;3.88;;
9506;SDS011;4791;47.528;9.372;2023-07-29T00:30:39;5.40;;;4.90;;
9506;SDS011;4791;47.528;9.372;2023-07-29T00:45:39;6.23;;;3.87;;
9506;SDS011;4791;47.528;9.372;2023-07-29T01:00:43;5.97;;;3.80;;
9506;SDS011;4791;47.528;9.372;2023-07-29T01:30:57;5.77;;;3.73;;
9506;SDS011;4791;47.528;9.372;2023-07-29T01:46:14;4.47;;;3.75;;
9506;SDS011;4791;47.528;9.372;2023-07-29T02:01:15;5.50;;;4.43;;
9506;SDS011;4791;47.528;9.372;2023-07-29T02:16:16;5.20;;;4.30;;
9506;SDS011;4791;47.528;9.372;2023-07-29T02:31:23;4.25;;;3.78;;
9506;SDS011;4791;47.528;9.372;2023-07-29T02:46:24;5.37;;;4.07;;
9506;SDS011;4791;47.528;9.372;2023-07-29T03:01:24;4.85;;;3.60;;
9506;SDS011;4791;47.528;9.372;2023-07-29T03:16:25;5.57;;;4.43;;
9506;SDS011;4791;47.528;9.372;2023-07-29T03:31:25;4.73;;;3.90;;
9506;SDS011;4791;47.528;9.372;2023-07-29T03:46:28;4.27;;;3.63;;
9506;SDS011;4791;47.528;9.372;2023-07-29T04:01:28;7.00;;;4.00;;
9506;SDS011;4791;47.528;9.372;2023-07-29T04:16:29;5.37;;;4.17;;
9506;SDS011;4791;47.528;9.372;2023-07-29T04:31:31;8.37;;;4.27;;
9506;SDS011;4791;47.528;9.372;2023-07-29T04:46:32;4.90;;;3.43;;
9506;SDS011;4791;47.528;9.372;2023-07-29T05:01:32;4.47;;;3.77;;
9506;SDS011;4791;47.528;9.372;2023-07-29T05:16:35;5.87;;;4.00;;
9506;SDS011;4791;47.528;9.372;2023-07-29T05:31:37;5.40;;;4.20;;
9506;SDS011;4791;47.528;9.372;2023-07-29T05:46:38;5.25;;;4.50;;
9506;SDS011;4791;47.528;9.372;2023-07-29T06:01:38;6.68;;;4.28;;
9506;SDS011;4791;47.528;9.372;2023-07-29T06:16:38;4.75;;;3.72;;
9506;SDS011;4791;47.528;9.372;2023-07-29T06:31:39;6.00;;;4.03;;
9506;SDS011;4791;47.528;9.372;2023-07-29T06:46:41;5.97;;;4.33;;
9506;SDS011;4791;47.528;9.372;2023-07-29T07:01:42;4.53;;;3.87;;
9506;SDS011;4791;47.528;9.372;2023-07-29T07:16:42;5.47;;;4.20;;
9506;SDS011;4791;47.528;9.372;2023-07-29T07:31:46;4.57;;;3.93;;
9506;SDS011;4791;47.528;9.372;2023-07-29T07:46:51;4.63;;;3.80;;
9506;SDS011;4791;47.528;9.372;2023-07-29T08:01:52;3.40;;;3.10;;
9506;SDS011;4791;47.528;9.372;2023-07-29T08:16:52;6.65;;;3.80;;
9506;SDS011;4791;47.528;9.372;2023-07-29T08:31:52;4.68;;;3.65;;
9506;SDS011;4791;47.528;9.372;2023-07-29T08:46:55;4.70;;;3.27;;
9506;SDS011;4791;47.528;9.372;2023-07-29T09:01:57;4.63;;;3.37;;
9506;SDS011;4791;47.528;9.372;2023-07-29T09:17:06;4.17;;;3.40;;
9506;SDS011;4791;47.528;9.372;2023-07-29T09:32:20;13.67;;;4.13;;
9506;SDS011;4791;47.528;9.372;2023-07-29T09:47:21;4.67;;;3.80;;
9506;SDS011;4791;47.528;9.372;2023-07-29T10:02:22;4.90;;;3.75;;
9506;SDS011;4791;47.528;9.372;2023-07-29T10:17:26;6.23;;;4.27;;
9506;SDS011;4791;47.528;9.372;2023-07-29T10:32:27;4.10;;;3.70;;
9506;SDS011;4791;47.528;9.372;2023-07-29T10:47:32;4.60;;;3.53;;
9506;SDS011;4791;47.528;9.372;2023-07-29T11:02:34;5.50;;;3.90;;
9506;SDS011;4791;47.528;9.372;2023-07-29T11:17:39;4.70;;;3.10;;
9506;SDS011;4791;47.528;9.372;2023-07-29T11:32:41;4.07;;;3.00;;
9506;SDS011;4791;47.528;9.372;2023-07-29T11:47:43;5.00;;;3.23;;
9506;SDS011;4791;47.528;9.372;2023-07-29T12:02:44;4.40;;;3.20;;
9506;SDS011;4791;47.528;9.372;2023-07-29T12:17:45;4.43;;;3.13;;
9506;SDS011;4791;47.528;9.372;2023-07-29T12:32:46;4.00;;;3.47;;
9506;SDS011;4791;47.528;9.372;2023-07-29T12:47:48;5.40;;;3.87;;
9506;SDS011;4791;47.528;9.372;2023-07-29T13:02:53;3.60;;;3.23;;
9506;SDS011;4791;47.528;9.372;2023-07-29T13:17:53;4.65;;;3.30;;
9506;SDS011;4791;47.528;9.372;2023-07-29T13:32:53;6.82;;;4.40;;
9506;SDS011;4791;47.528;9.372;2023-07-29T13:47:54;5.13;;;4.03;;
9506;SDS011;4791;47.528;9.372;2023-07-29T14:02:56;7.03;;;4.13;;
9506;SDS011;4791;47.528;9.372;2023-07-29T14:17:57;3.90;;;3.30;;
9506;SDS011;4791;47.528;9.372;2023-07-29T14:33:00;3.50;;;2.13;;
9506;SDS011;4791;47.528;9.372;2023-07-29T14:48:00;3.90;;;2.60;;
9506;SDS011;4791;47.528;9.372;2023-07-29T15:03:01;2.83;;;2.17;;
9506;SDS011;4791;47.528;9.372;2023-07-29T15:18:01;2.67;;;1.90;;
9506;SDS011;4791;47.528;9.372;2023-07-29T15:33:02;3.03;;;2.13;;
9506;SDS011;4791;47.528;9.372;2023-07-29T15:48:02;2.55;;;1.73;;
9506;SDS011;4791;47.528;9.372;2023-07-29T16:03:03;2.70;;;2.28;;
9506;SDS011;4791;47.528;9.372;2023-07-29T16:18:03;3.37;;;2.30;;
9506;SDS011;4791;47.528;9.372;2023-07-29T16:33:06;2.88;;;2.33;;
9506;SDS011;4791;47.528;9.372;2023-07-29T16:48:06;3.13;;;2.22;;
9506;SDS011;4791;47.528;9.372;2023-07-29T17:03:07;3.40;;;2.53;;
9506;SDS011;4791;47.528;9.372;2023-07-29T17:18:07;4.18;;;2.60;;
9506;SDS011;4791;47.528;9.372;2023-07-29T17:33:10;3.40;;;2.30;;
9506;SDS011;4791;47.528;9.372;2023-07-29T17:48:10;3.30;;;2.50;;
9506;SDS011;4791;47.528;9.372;2023-07-29T18:03:11;3.50;;;2.77;;
9506;SDS011;4791;47.528;9.372;2023-07-29T18:18:11;4.38;;;3.35;;
9506;SDS011;4791;47.528;9.372;2023-07-29T18:33:11;3.85;;;2.80;;
9506;SDS011;4791;47.528;9.372;2023-07-29T18:48:12;3.58;;;2.35;;
9506;SDS011;4791;47.528;9.372;2023-07-29T19:03:13;2.90;;;2.35;;
9506;SDS011;4791;47.528;9.372;2023-07-29T19:18:14;2.60;;;2.07;;
9506;SDS011;4791;47.528;9.372;2023-07-29T19:33:14;2.70;;;2.20;;
9506;SDS011;4791;47.528;9.372;2023-07-29T19:48:17;4.00;;;3.53;;
9506;SDS011;4791;47.528;9.372;2023-07-29T20:03:18;4.40;;;3.10;;
9506;SDS011;4791;47.528;9.372;2023-07-29T20:18:18;5.00;;;3.00;;
9506;SDS011;4791;47.528;9.372;2023-07-29T20:33:23;3.73;;;2.40;;
9506;SDS011;4791;47.528;9.372;2023-07-29T20:48:23;3.37;;;2.47;;
9506;SDS011;4791;47.528;9.372;2023-07-29T21:03:25;3.00;;;2.10;;
9506;SDS011;4791;47.528;9.372;2023-07-29T21:18:25;3.20;;;2.53;;
9506;SDS011;4791;47.528;9.372;2023-07-29T21:33:28;3.27;;;2.30;;
9506;SDS011;4791;47.528;9.372;2023-07-29T21:48:29;3.20;;;2.30;;
9506;SDS011;4791;47.528;9.372;2023-07-29T22:03:29;2.60;;;2.23;;
9506;SDS011;4791;47.528;9.372;2023-07-29T22:18:30;4.07;;;2.20;;
9506;SDS011;4791;47.528;9.372;2023-07-29T22:33:33;3.17;;;2.60;;
9506;SDS011;4791;47.528;9.372;2023-07-29T22:48:35;3.60;;;2.70;;
9506;SDS011;4791;47.528;9.372;2023-07-29T23:03:36;3.92;;;2.47;;
9506;SDS011;4791;47.528;9.372;2023-07-29T23:18:36;3.22;;;2.42;;
9506;SDS011;4791;47.528;9.372;2023-07-29T23:33:36;3.77;;;2.40;;
9506;SDS011;4791;47.528;9.372;2023-07-29T23:48:37;4.90;;;2.60;;
